sensor_id;sensor_type;location;lat;lon;timestamp;P1;durP1;ratioP1;P2;durP2;ratioP2
43861;SDS011;29510;52.140;5.034;2023-05-10T00:08:13;25.20;;;11.95;;
43861;SDS011;29510;52.140;5.034;2023-05-10T00:18:14;31.45;;;14.10;;
43861;SDS011;29510;52.140;5.034;2023-05-10T00:28:15;32.47;;;15.80;;
43861;SDS011;29510;52.140;5.034;2023-05-10T00:38:16;36.97;;;16.45;;
43861;SDS011;29510;52.140;5.034;2023-05-10T00:48:17;31.00;;;14.90;;
43861;SDS011;29510;52.140;5.034;2023-05-10T00:58:19;44.28;;;18.13;;
43861;SDS011;29510;52.140;5.034;2023-05-10T01:08:20;37.17;;;15.50;;
43861;SDS011;29510;52.140;5.034;2023-05-10T01:18:22;42.30;;;16.63;;
43861;SDS011;29510;52.140;5.034;2023-05-10T01:28:28;42.13;;;17.90;;
43861;SDS011;29510;52.140;5.034;2023-05-10T01:38:53;51.80;;;20.23;;
43861;SDS011;29510;52.140;5.034;2023-05-10T01:49:07;53.33;;;21.55;;
43861;SDS011;29510;52.140;5.034;2023-05-10T01:59:15;53.28;;;19.95;;
43861;SDS011;29510;52.140;5.034;2023-05-10T02:09:20;51.13;;;18.13;;
43861;SDS011;29510;52.140;5.034;2023-05-10T02:19:21;55.63;;;21.65;;
43861;SDS011;29510;52.140;5.034;2023-05-10T02:29:24;61.22;;;22.25;;
43861;SDS011;29510;52.140;5.034;2023-05-10T02:39:27;52.75;;;19.50;;
43861;SDS011;29510;52.140;5.034;2023-05-10T02:49:29;54.95;;;20.60;;
43861;SDS011;29510;52.140;5.034;2023-05-10T02:59:30;59.40;;;19.50;;
43861;SDS011;29510;52.140;5.034;2023-05-10T03:09:33;60.42;;;20.73;;
43861;SDS011;29510;52.140;5.034;2023-05-10T03:19:54;57.13;;;19.38;;
43861;SDS011;29510;52.140;5.034;2023-05-10T03:29:57;54.90;;;18.92;;
43861;SDS011;29510;52.140;5.034;2023-05-10T03:39:58;49.05;;;19.33;;
43861;SDS011;29510;52.140;5.034;2023-05-10T03:49:59;49.30;;;20.00;;
43861;SDS011;29510;52.140;5.034;2023-05-10T04:00:00;51.17;;;20.88;;
43861;SDS011;29510;52.140;5.034;2023-05-10T04:10:03;51.60;;;19.40;;
43861;SDS011;29510;52.140;5.034;2023-05-10T04:20:05;56.05;;;21.63;;
43861;SDS011;29510;52.140;5.034;2023-05-10T04:30:07;57.38;;;22.83;;
43861;SDS011;29510;52.140;5.034;2023-05-10T04:40:08;46.90;;;19.13;;
43861;SDS011;29510;52.140;5.034;2023-05-10T04:50:10;44.28;;;19.10;;
43861;SDS011;29510;52.140;5.034;2023-05-10T05:00:11;42.78;;;17.90;;
43861;SDS011;29510;52.140;5.034;2023-05-10T05:10:12;47.78;;;19.92;;
43861;SDS011;29510;52.140;5.034;2023-05-10T05:20:13;45.20;;;17.95;;
43861;SDS011;29510;52.140;5.034;2023-05-10T05:30:14;27.65;;;10.65;;
43861;SDS011;29510;52.140;5.034;2023-05-10T05:40:16;22.02;;;8.30;;
43861;SDS011;29510;52.140;5.034;2023-05-10T05:50:17;18.60;;;8.93;;
43861;SDS011;29510;52.140;5.034;2023-05-10T06:00:18;18.23;;;8.05;;
43861;SDS011;29510;52.140;5.034;2023-05-10T06:10:19;16.88;;;7.97;;
43861;SDS011;29510;52.140;5.034;2023-05-10T06:20:20;12.20;;;6.13;;
43861;SDS011;29510;52.140;5.034;2023-05-10T06:30:21;15.68;;;6.55;;
43861;SDS011;29510;52.140;5.034;2023-05-10T06:40:27;17.35;;;8.00;;
43861;SDS011;29510;52.140;5.034;2023-05-10T06:50:28;11.82;;;6.20;;
43861;SDS011;29510;52.140;5.034;2023-05-10T07:00:29;13.93;;;6.38;;
43861;SDS011;29510;52.140;5.034;2023-05-10T07:10:30;12.63;;;5.65;;
43861;SDS011;29510;52.140;5.034;2023-05-10T07:20:31;9.68;;;4.85;;
43861;SDS011;29510;52.140;5.034;2023-05-10T07:30:32;16.88;;;7.60;;
43861;SDS011;29510;52.140;5.034;2023-05-10T07:40:34;11.05;;;5.32;;
43861;SDS011;29510;52.140;5.034;2023-05-10T07:50:35;10.25;;;5.05;;
43861;SDS011;29510;52.140;5.034;2023-05-10T08:00:36;9.13;;;4.38;;
43861;SDS011;29510;52.140;5.034;2023-05-10T08:10:39;8.32;;;4.00;;
43861;SDS011;29510;52.140;5.034;2023-05-10T08:20:40;9.68;;;5.07;;
43861;SDS011;29510;52.140;5.034;2023-05-10T08:30:41;10.13;;;4.57;;
43861;SDS011;29510;52.140;5.034;2023-05-10T08:40:43;8.32;;;3.42;;
43861;SDS011;29510;52.140;5.034;2023-05-10T08:50:44;6.47;;;3.72;;
43861;SDS011;29510;52.140;5.034;2023-05-10T09:00:48;7.57;;;3.45;;
43861;SDS011;29510;52.140;5.034;2023-05-10T09:10:51;11.27;;;3.13;;
43861;SDS011;29510;52.140;5.034;2023-05-10T09:20:52;4.43;;;2.30;;
43861;SDS011;29510;52.140;5.034;2023-05-10T09:30:53;7.65;;;2.45;;
43861;SDS011;29510;52.140;5.034;2023-05-10T09:40:55;7.60;;;3.55;;
43861;SDS011;29510;52.140;5.034;2023-05-10T09:50:58;6.65;;;2.42;;
43861;SDS011;29510;52.140;5.034;2023-05-10T10:00:59;6.70;;;2.70;;
43861;SDS011;29510;52.140;5.034;2023-05-10T10:11:00;7.43;;;3.33;;
43861;SDS011;29510;52.140;5.034;2023-05-10T10:21:01;6.95;;;3.30;;
43861;SDS011;29510;52.140;5.034;2023-05-10T10:31:12;5.57;;;3.03;;
43861;SDS011;29510;52.140;5.034;2023-05-10T10:41:35;5.35;;;2.75;;
43861;SDS011;29510;52.140;5.034;2023-05-10T10:51:38;4.57;;;2.28;;
43861;SDS011;29510;52.140;5.034;2023-05-10T11:01:39;4.72;;;1.80;;
43861;SDS011;29510;52.140;5.034;2023-05-10T11:11:51;2.78;;;1.40;;
43861;SDS011;29510;52.140;5.034;2023-05-10T11:32:05;3.67;;;2.03;;
43861;SDS011;29510;52.140;5.034;2023-05-10T11:42:08;3.35;;;1.60;;
43861;SDS011;29510;52.140;5.034;2023-05-10T11:52:11;3.35;;;1.38;;
43861;SDS011;29510;52.140;5.034;2023-05-10T12:02:15;4.43;;;2.20;;
43861;SDS011;29510;52.140;5.034;2023-05-10T12:12:16;8.52;;;4.50;;
43861;SDS011;29510;52.140;5.034;2023-05-10T12:22:20;9.85;;;5.63;;
43861;SDS011;29510;52.140;5.034;2023-05-10T12:32:21;12.43;;;6.47;;
43861;SDS011;29510;52.140;5.034;2023-05-10T12:52:40;12.80;;;6.32;;
43861;SDS011;29510;52.140;5.034;2023-05-10T13:02:41;12.02;;;5.40;;
43861;SDS011;29510;52.140;5.034;2023-05-10T13:12:42;12.50;;;5.55;;
43861;SDS011;29510;52.140;5.034;2023-05-10T13:22:44;11.50;;;5.95;;
43861;SDS011;29510;52.140;5.034;2023-05-10T13:32:46;14.02;;;5.70;;
43861;SDS011;29510;52.140;5.034;2023-05-10T13:42:48;11.32;;;5.32;;
43861;SDS011;29510;52.140;5.034;2023-05-10T13:52:49;10.70;;;4.90;;
43861;SDS011;29510;52.140;5.034;2023-05-10T14:02:50;9.13;;;4.82;;
43861;SDS011;29510;52.140;5.034;2023-05-10T14:12:51;8.45;;;4.35;;
43861;SDS011;29510;52.140;5.034;2023-05-10T14:22:52;12.48;;;6.05;;
43861;SDS011;29510;52.140;5.034;2023-05-10T14:32:53;8.88;;;4.10;;
43861;SDS011;29510;52.140;5.034;2023-05-10T14:42:54;6.65;;;2.67;;
43861;SDS011;29510;52.140;5.034;2023-05-10T14:52:56;5.43;;;2.50;;
43861;SDS011;29510;52.140;5.034;2023-05-10T15:02:58;5.30;;;2.88;;
43861;SDS011;29510;52.140;5.034;2023-05-10T15:12:59;7.32;;;3.92;;
43861;SDS011;29510;52.140;5.034;2023-05-10T15:23:00;7.47;;;3.85;;
43861;SDS011;29510;52.140;5.034;2023-05-10T15:33:01;11.48;;;5.07;;
43861;SDS011;29510;52.140;5.034;2023-05-10T15:43:02;12.20;;;5.88;;
43861;SDS011;29510;52.140;5.034;2023-05-10T15:53:03;11.43;;;4.63;;
43861;SDS011;29510;52.140;5.034;2023-05-10T16:03:05;12.57;;;5.57;;
43861;SDS011;29510;52.140;5.034;2023-05-10T16:13:06;7.90;;;4.43;;
43861;SDS011;29510;52.140;5.034;2023-05-10T16:23:08;8.55;;;3.85;;
43861;SDS011;29510;52.140;5.034;2023-05-10T16:33:09;9.05;;;4.65;;
43861;SDS011;29510;52.140;5.034;2023-05-10T16:43:10;12.55;;;5.10;;
43861;SDS011;29510;52.140;5.034;2023-05-10T17:05:00;10.27;;;4.57;;
43861;SDS011;29510;52.140;5.034;2023-05-10T17:15:04;12.20;;;5.10;;
43861;SDS011;29510;52.140;5.034;2023-05-10T17:25:05;11.63;;;4.28;;
43861;SDS011;29510;52.140;5.034;2023-05-10T17:35:07;7.80;;;3.72;;
43861;SDS011;29510;52.140;5.034;2023-05-10T17:45:08;8.77;;;4.40;;
43861;SDS011;29510;52.140;5.034;2023-05-10T17:55:11;16.00;;;5.07;;
43861;SDS011;29510;52.140;5.034;2023-05-10T18:05:12;11.55;;;4.72;;
43861;SDS011;29510;52.140;5.034;2023-05-10T18:15:13;10.10;;;4.78;;
43861;SDS011;29510;52.140;5.034;2023-05-10T18:25:14;9.50;;;3.80;;
43861;SDS011;29510;52.140;5.034;2023-05-10T18:35:16;10.40;;;4.45;;
43861;SDS011;29510;52.140;5.034;2023-05-10T18:45:17;9.90;;;4.70;;
43861;SDS011;29510;52.140;5.034;2023-05-10T18:55:18;13.02;;;5.65;;
43861;SDS011;29510;52.140;5.034;2023-05-10T19:05:19;13.85;;;6.00;;
43861;SDS011;29510;52.140;5.034;2023-05-10T19:15:20;12.70;;;5.45;;
43861;SDS011;29510;52.140;5.034;2023-05-10T19:25:21;14.82;;;6.47;;
43861;SDS011;29510;52.140;5.034;2023-05-10T19:35:28;10.52;;;4.80;;
43861;SDS011;29510;52.140;5.034;2023-05-10T19:45:30;10.00;;;4.25;;
43861;SDS011;29510;52.140;5.034;2023-05-10T19:55:31;12.90;;;5.95;;
43861;SDS011;29510;52.140;5.034;2023-05-10T20:05:32;9.43;;;4.90;;
43861;SDS011;29510;52.140;5.034;2023-05-10T20:15:33;13.98;;;5.75;;
43861;SDS011;29510;52.140;5.034;2023-05-10T20:25:34;12.63;;;5.30;;
43861;SDS011;29510;52.140;5.034;2023-05-10T20:35:35;10.10;;;5.30;;
43861;SDS011;29510;52.140;5.034;2023-05-10T20:45:36;10.90;;;5.78;;
43861;SDS011;29510;52.140;5.034;2023-05-10T20:55:37;13.45;;;6.20;;
43861;SDS011;29510;52.140;5.034;2023-05-10T21:05:38;10.10;;;5.18;;
43861;SDS011;29510;52.140;5.034;2023-05-10T21:15:40;12.88;;;6.35;;
43861;SDS011;29510;52.140;5.034;2023-05-10T21:25:41;10.88;;;4.72;;
43861;SDS011;29510;52.140;5.034;2023-05-10T21:35:42;11.85;;;4.53;;
43861;SDS011;29510;52.140;5.034;2023-05-10T21:45:43;15.07;;;5.53;;
43861;SDS011;29510;52.140;5.034;2023-05-10T21:55:44;11.20;;;4.40;;
43861;SDS011;29510;52.140;5.034;2023-05-10T22:05:45;16.58;;;6.43;;
43861;SDS011;29510;52.140;5.034;2023-05-10T22:15:46;12.60;;;5.18;;
43861;SDS011;29510;52.140;5.034;2023-05-10T22:25:47;14.75;;;6.65;;
43861;SDS011;29510;52.140;5.034;2023-05-10T22:35:48;15.30;;;6.57;;
43861;SDS011;29510;52.140;5.034;2023-05-10T22:45:49;14.32;;;6.53;;
43861;SDS011;29510;52.140;5.034;2023-05-10T22:55:51;11.55;;;6.88;;
43861;SDS011;29510;52.140;5.034;2023-05-10T23:05:52;14.70;;;6.40;;
43861;SDS011;29510;52.140;5.034;2023-05-10T23:15:53;12.07;;;6.28;;
43861;SDS011;29510;52.140;5.034;2023-05-10T23:25:54;11.55;;;5.57;;
43861;SDS011;29510;52.140;5.034;2023-05-10T23:35:56;15.23;;;7.35;;
43861;SDS011;29510;52.140;5.034;2023-05-10T23:45:57;12.75;;;6.50;;
43861;SDS011;29510;52.140;5.034;2023-05-10T23:55:58;20.75;;;5.85;;
